Flight Track Log - Related Links

Times and Time Zones

All times are in EST time to prevent confusion due to time zone crossing. See the AAY846 flight status page for this flight to view local times or setup timezone preferences in your user account.

Time Position Orientation Groundspeed Altitude Reporting Facility
EST Latitude Longitude Course Direction KTS MPH feet Rate Location/Type
Mon 09:11:19 AM 27.9167 -82.6833 360° North 166 191 500  Level Tampa TRACON
Mon 09:12:01 AM 27.9667 -82.6833 360° North 194 223 1,600 1,667 Climbing Tampa TRACON
Mon 09:13:07 AM 28.0333 -82.6667 12° North 265 305 3,500 2,271 Climbing Tampa TRACON
Mon 09:15:35 AM 28.2167 -82.7017 350° North 277 319 9,700 2,192 Climbing Jacksonville Center
Mon 09:16:35 AM 28.3000 -82.7133 353° North 289 333 11,100 1,361 Climbing Jacksonville Center
Mon 09:17:34 AM 28.4003 -82.7297 352° North 322 371 12,400 1,700 Climbing Jacksonville Center
Mon 09:18:35 AM 28.5067 -82.7461 352° North 363 418 14,500 2,132 Climbing Jacksonville Center
Mon 09:19:35 AM 28.6089 -82.7886 340° North 381 438 16,700 1,650 Climbing Jacksonville Center
Mon 09:20:35 AM 28.6800 -82.8475 324° Northwest 386 444 17,800 1,412 Climbing Jacksonville Center
Mon 09:21:34 AM 28.7822 -82.9306 325° Northwest 392 451 19,500 1,700 Climbing Jacksonville Center
Mon 09:22:35 AM 28.8783 -83.0089 324° Northwest 407 468 21,200 1,488 Climbing Jacksonville Center
Mon 09:23:35 AM 28.9761 -83.0847 326° Northwest 417 480 22,500 1,550 Climbing Jacksonville Center
Mon 09:24:35 AM 29.0722 -83.1658 324° Northwest 428 493 24,300 1,600 Climbing Jacksonville Center
Mon 09:25:35 AM 29.1722 -83.2422 326° Northwest 433 498 25,700 1,450 Climbing Jacksonville Center
Mon 09:26:35 AM 29.2764 -83.3069 332° Northwest 428 493 27,200 1,350 Climbing Jacksonville Center
Mon 09:27:35 AM 29.3825 -83.3669 334° Northwest 423 487 28,400 1,150 Climbing Jacksonville Center
Mon 09:28:35 AM 29.4889 -83.4269 334° Northwest 423 487 29,500 800 Climbing Jacksonville Center
Mon 09:29:35 AM 29.5950 -83.4850 335° Northwest 423 487 30,000 200 Climbing Jacksonville Center
Mon 09:30:35 AM 29.7075 -83.5503 333° Northwest 423 487 29,900 -50 Descending Jacksonville Center
Mon 09:31:35 AM 29.8136 -83.6108 334° Northwest 418 481 29,900 50 Level Jacksonville Center
Mon 09:32:35 AM 29.9175 -83.6667 335° Northwest 418 481 30,000  Climbing Jacksonville Center
Mon 09:33:35 AM 30.0194 -83.7250 334° Northwest 418 481 29,900  Descending Jacksonville Center
Mon 09:34:35 AM 30.1236 -83.7858 333° Northwest 406 467 30,000 50 Climbing Jacksonville Center
Mon 09:35:35 AM 30.2275 -83.8444 334° Northwest 406 467 30,000 -50 Level Jacksonville Center
Mon 09:36:34 AM 30.3294 -83.9033 334° Northwest 406 467 29,900  Descending Jacksonville Center
Mon 09:37:35 AM 30.4311 -83.9622 333° Northwest 406 467 30,000  Climbing Jacksonville Center
Mon 09:38:35 AM 30.5350 -84.0214 334° Northwest 406 467 29,900  Descending Jacksonville Center
Mon 09:39:35 AM 30.6244 -84.0731 334° Northwest 399 459 30,000 50 Climbing Jacksonville Center
Mon 09:40:35 AM 30.7281 -84.1347 333° Northwest 399 459 30,000  Level Jacksonville Center
Mon 09:41:35 AM 30.8300 -84.1942 333° Northwest 407 468 30,000  Level Jacksonville Center
Mon 09:42:35 AM 30.9336 -84.2536 334° Northwest 407 468 30,000  Level Jacksonville Center
Mon 09:43:35 AM 31.0353 -84.3158 332° Northwest 407 468 30,000  Level Jacksonville Center
Mon 09:44:35 AM 31.1389 -84.3756 334° Northwest 407 468 30,000  Level Jacksonville Center
Mon 09:46:59 AM 31.3867 -84.5206 333° Northwest 407 468 30,000  Level Atlanta Center
Mon 09:47:59 AM 31.4886 -84.5794 334° Northwest 407 468 30,000  Level Atlanta Center
Mon 09:48:59 AM 31.5908 -84.6411 333° Northwest 407 468 30,000  Level Atlanta Center
Mon 09:49:59 AM 31.6928 -84.7053 332° Northwest 407 468 30,000  Level Atlanta Center
Mon 09:50:59 AM 31.7925 -84.7644 333° Northwest 407 468 30,000  Level Atlanta Center
Mon 09:51:59 AM 31.8986 -84.8167 337° Northwest 407 468 30,000  Level Atlanta Center
Mon 09:52:59 AM 32.0111 -84.8544 344° North 407 468 30,000  Level Atlanta Center
Mon 09:53:59 AM 32.1339 -84.8972 344° North 412 474 30,000  Level Atlanta Center
Mon 09:54:59 AM 32.2464 -84.9353 344° North 412 474 30,000  Level Atlanta Center
Mon 09:55:59 AM 32.3400 -84.9631 346° North 412 474 30,000  Level Atlanta Center
Mon 09:56:59 AM 32.4589 -85.0039 344° North 418 481 30,000  Level Atlanta Center
Mon 09:57:59 AM 32.5692 -85.0394 345° North 418 481 30,000  Level Atlanta Center
Mon 09:58:59 AM 32.6836 -85.0778 344° North 412 474 30,000  Level Atlanta Center
Mon 09:59:59 AM 32.8000 -85.1261 341° North 424 488 30,000  Level Atlanta Center
Mon 10:00:59 AM 32.9083 -85.1547 347° North 424 488 30,000  Level Atlanta Center
Mon 10:01:59 AM 33.0186 -85.1933 344° North 414 476 30,000  Level Atlanta Center
Mon 10:02:59 AM 33.1289 -85.2469 338° Northwest 423 487 30,000  Level Atlanta Center
Mon 10:03:59 AM 33.2347 -85.2956 339° North 412 474 30,000  Level Atlanta Center
Mon 10:04:59 AM 33.3489 -85.3519 338° Northwest 407 468 30,000  Level Atlanta Center
Mon 10:05:59 AM 33.4550 -85.3983 340° North 407 468 30,000  Level Atlanta Center
Mon 10:06:59 AM 33.5628 -85.4475 339° North 407 468 30,000  Level Atlanta Center
Mon 10:07:59 AM 33.6667 -85.4989 338° Northwest 407 468 30,000  Level Atlanta Center
Mon 10:08:59 AM 33.7725 -85.5483 339° North 407 468 30,000  Level Atlanta Center
Mon 10:09:59 AM 33.8783 -85.5950 340° North 407 468 30,000  Level Atlanta Center
Mon 10:10:59 AM 33.9822 -85.6447 338° Northwest 407 468 30,000  Level Atlanta Center
Mon 10:11:59 AM 34.0733 -85.6864 339° North 402 463 30,000  Level Atlanta Center
Mon 10:12:59 AM 34.1769 -85.7361 338° Northwest 397 457 30,000  Level Atlanta Center
Mon 10:13:59 AM 34.2808 -85.7861 338° Northwest 392 451 30,000  Level Atlanta Center
Mon 10:14:59 AM 34.3822 -85.8283 341° North 392 451 30,000  Level Atlanta Center
Mon 10:15:59 AM 34.4881 -85.8786 339° North 392 451 30,000  Level Atlanta Center
Mon 10:16:59 AM 34.5917 -85.9286 338° Northwest 392 451 30,000  Level Atlanta Center
Mon 10:17:59 AM 34.6972 -85.9767 339° North 392 451 30,000  Level Atlanta Center
Mon 10:18:59 AM 34.8028 -86.0294 338° Northwest 397 457 30,000  Level Atlanta Center
Mon 10:19:59 AM 34.9086 -86.0803 339° North 397 457 30,000  Level Atlanta Center
Mon 10:20:59 AM 35.0097 -86.1333 337° Northwest 397 457 30,000  Level Atlanta Center
Mon 10:21:59 AM 35.1156 -86.1792 340° North 397 457 30,000  Level Atlanta Center
Mon 10:23:31 AM 35.2767 -86.2628 337° Northwest 402 463 30,000  Level Memphis Center
Mon 10:24:33 AM 35.3822 -86.3122 339° North 402 463 30,000  Level Memphis Center
Mon 10:25:35 AM 35.4847 -86.3636 338° Northwest 397 457 30,000  Level Memphis Center
Mon 10:26:37 AM 35.5853 -86.4214 335° Northwest 396 456 30,000  Level Memphis Center
Mon 10:27:39 AM 35.6858 -86.4783 335° Northwest 394 453 30,000  Level Memphis Center
Mon 10:28:40 AM 35.8033 -86.5431 336° Northwest 394 453 30,000  Level Memphis Center
Mon 10:29:42 AM 35.9036 -86.5989 336° Northwest 393 452 30,000  Level Memphis Center
Mon 10:30:44 AM 36.0033 -86.6544 336° Northwest 390 449 30,000  Level Memphis Center
Mon 10:31:46 AM 36.1017 -86.7094 336° Northwest 387 445 30,000  Level Memphis Center
Mon 10:32:48 AM 36.2003 -86.7650 336° Northwest 386 444 30,000  Level Memphis Center
Mon 10:33:50 AM 36.3039 -86.8225 336° Northwest 387 445 30,000  Level Memphis Center
Mon 10:34:51 AM 36.4094 -86.8808 336° Northwest 389 448 30,000  Level Memphis Center
Mon 10:35:53 AM 36.5078 -86.9378 335° Northwest 388 447 30,000  Level Memphis Center
Mon 10:36:55 AM 36.6081 -86.9944 336° Northwest 390 449 30,000  Level Memphis Center
Mon 10:37:57 AM 36.7075 -87.0508 336° Northwest 390 449 30,000  Level Memphis Center
Mon 10:38:59 AM 36.8089 -87.1097 335° Northwest 394 453 30,000  Level Memphis Center
Mon 10:40:01 AM 36.9100 -87.1672 336° Northwest 396 456 30,000  Level Memphis Center
Mon 10:41:02 AM 37.0261 -87.2339 335° Northwest 392 451 30,000  Level Memphis Center
Mon 10:42:04 AM 37.1233 -87.2914 335° Northwest 385 443 30,000  Level Memphis Center
Mon 10:43:03 AM 37.2056 -87.3392 335° Northwest 386 444 30,000  Level Indianapolis Center
Mon 10:44:04 AM 37.3206 -87.4067 335° Northwest 386 444 30,000  Level Indianapolis Center
Mon 10:45:06 AM 37.4208 -87.4636 336° Northwest 387 445 30,000  Level Indianapolis Center
Mon 10:46:08 AM 37.5203 -87.5214 335° Northwest 387 445 30,000  Level Indianapolis Center
Mon 10:47:09 AM 37.6197 -87.5794 335° Northwest 389 448 30,000  Level Indianapolis Center
Mon 10:48:11 AM 37.7200 -87.6386 335° Northwest 391 450 30,000  Level Indianapolis Center
Mon 10:49:13 AM 37.8131 -87.6931 335° Northwest 392 451 30,000  Level Indianapolis Center
Mon 10:50:15 AM 37.9125 -87.7539 334° Northwest 392 451 30,000  Level Indianapolis Center
Mon 10:51:16 AM 38.0339 -87.8247 335° Northwest 394 453 30,000  Level Indianapolis Center
Mon 10:52:18 AM 38.1358 -87.8850 335° Northwest 395 455 30,000  Level Indianapolis Center
Mon 10:53:20 AM 38.2372 -87.9453 335° Northwest 396 456 30,000  Level Indianapolis Center
Mon 10:54:21 AM 38.3397 -88.0064 335° Northwest 398 458 30,000  Level Indianapolis Center
Mon 10:55:23 AM 38.4411 -88.0667 335° Northwest 398 458 30,000  Level Indianapolis Center
Mon 10:56:25 AM 38.5419 -88.1264 335° Northwest 398 458 30,000  Level Indianapolis Center
Mon 10:57:26 AM 38.6417 -88.1872 335° Northwest 398 458 30,000  Level Indianapolis Center
Mon 10:58:28 AM 38.7439 -88.2489 335° Northwest 398 458 30,000  Level Indianapolis Center
Mon 10:59:30 AM 38.8467 -88.3103 335° Northwest 399 459 30,000  Level Indianapolis Center
Mon 11:00:31 AM 38.9497 -88.3733 335° Northwest 400 460 30,000  Level Indianapolis Center
Mon 11:01:33 AM 39.0550 -88.4361 335° Northwest 407 468 30,000 -242 Level Indianapolis Center
Mon 11:02:35 AM 39.1781 -88.5117 335° Northwest 408 470 29,500 -1,024 Descending Indianapolis Center
Mon 11:03:36 AM 39.2817 -88.5742 335° Northwest 408 470 27,900 -1,951 Descending Indianapolis Center
Mon 11:04:38 AM 39.3822 -88.6358 335° Northwest 404 465 25,500 -2,565 Descending Indianapolis Center
Mon 11:05:40 AM 39.4881 -88.7008 335° Northwest 410 472 22,600 -2,341 Descending Indianapolis Center
Mon 11:06:41 AM 39.5933 -88.7669 334° Northwest 418 481 20,700 -1,707 Descending Indianapolis Center
Mon 11:07:43 AM 39.6903 -88.8261 335° Northwest 413 475 19,100 -1,714 Descending Indianapolis Center
Mon 11:09:01 AM 39.8083 -88.9150 330° Northwest 395 455 16,700 -1,917 Descending Kansas City Center
Mon 11:10:07 AM 39.9078 -89.0106 324° Northwest 374 430 14,500 -1,734 Descending Chicago Center
Mon 11:11:09 AM 39.9947 -89.0858 326° Northwest 374 430 13,000 -1,500 Descending Chicago Center
Mon 11:12:07 AM 40.0789 -89.1600 326° Northwest 368 423 11,500 -1,068 Descending Kansas City Center
Mon 11:13:07 AM 40.1581 -89.2328 325° Northwest 354 407 10,900 -283 Descending Kansas City Center
Mon 11:14:14 AM 40.2325 -89.2978 326° Northwest 335 386 10,900  Level Chicago Center
Mon 11:15:15 AM 40.3214 -89.3800 325° Northwest 328 377 10,900 49 Level Chicago Center
Mon 11:16:16 AM 40.3961 -89.4483 325° Northwest 327 376 11,000 -341 Climbing Chicago Center
Mon 11:17:18 AM 40.4692 -89.5197 323° Northwest 328 377 10,200 -732 Descending Chicago Center
Mon 11:18:19 AM 40.5328 -89.5897 320° Northwest 315 362 9,500 -976 Descending Chicago Center
Mon 11:19:21 AM 40.5819 -89.6611 312° West 286 329 8,200 -1,220 Descending Chicago Center
Mon 11:20:22 AM 40.6294 -89.7300 312° West 267 307 7,000 -1,463 Descending Chicago Center
Mon 11:21:24 AM 40.6722 -89.8053 307° West 260 299 5,200 -1,756 Descending Chicago Center
Mon 11:22:25 AM 40.6956 -89.8956 289° West 253 291 3,400 -1,366 Descending Chicago Center
Mon 11:23:27 AM 40.7239 -89.9728 296° West 248 285 2,400 -439 Descending Chicago Center
Mon 11:24:28 AM 40.7603 -89.9364 37° Northeast 206 237 2,500  Climbing Chicago Center
Mon 11:25:30 AM 40.7617 -89.8789 88° East 173 199 2,400 -49 Descending Chicago Center
Mon 11:26:31 AM 40.7425 -89.8353 120° Southeast 148 170 2,400 -98 Level Chicago Center
Mon 11:27:33 AM 40.7203 -89.7950 126° Southeast 138 159 2,200 -341 Descending Chicago Center
Mon 11:28:34 AM 40.7006 -89.7611 128° Southeast 126 145 1,700 -639 Descending Chicago Center
Mon 11:29:35 AM 40.6803 -89.7247 126° Southeast 122 140 900 -439 Descending Chicago Center
Mon 11:30:37 AM 40.6594 -89.6894 128° Southeast 122 140 800 -97 Descending Chicago Center

Login

Don't have an account? Register now (free) for customized features, flight alerts, and more!